Eleven Point River (Missouri), Ravenden Springs (07072000)

StateMissouriLatestPoor (720 cfs)
RiverEleven Point RiverRatingObservedEstimated
Updated2022-09-25 9:45 (37 minutes ago)Flood - The river is flooding. Obstacles can be treacherous or deadly. The river should be avoided at this stage for casual trips and definitely for the inexperienced. Trips should be attempted only with protective gear and equipment.Flood(none)3315
Discharge720 cfs (median: 571 cfs)High - The river is high and potentially dangerous, especially for the young and / or inexperienced. Normal stream obstacles are sometimes difficult to navigate. Extended distances can be attempted, but canoe travel may not be advisable.High(none)1453
Height3.19 feetGood - Conditions are ideal for a canoe or kayak. Boats typically will drag on fewer than one-quarter of riffles, if at all, and portages are unnecessary or rare. Normal float lengths can be attempted without a problem.Good(none)1045
TrendSteady (rising over 24 hours)Low - River is low but can still be floated. Some riffles are okay but most come with significant dragging and might need a portage. Float lengths should be reduced to accommodate low flow, dragging, and portages.Low(none)788
USGSExternal icon USGS Site (External icon Duck Duck Go Maps)Poor - River is too low to float comfortably. Most or all riffles will drag or must be portaged and some obstacles (such as slick shelf rock) cause undue problems. Avoid the river at this stage for casual paddling trips.Poor(none)419

Trending Data

Plot Image

Trips for Eleven Point River (Missouri), Ravenden Springs (07072000)

DateStartEndDistanceConditionDischargeHeightFishingDetails

A total of 0 rows are displayed.

Condition Descriptions

Fishing Conditions

Fish Species

Notes

Classic Trip List

The classic River Trips application is still available for use. It is updated with the new system using a data retrofit. It is no longer maintained. The original River Trips application is no longer updated (as of 1 Dec 2016) but can be checked for errors or for the condition of the data before it was converted to the new system.

Gauge Data Table

ObservationHeightDischargeMaximum
Discharge
Minimum
Discharge
Mean
Discharge
P05P10P20P25P50
(Median)
P75P80P90P95
2022-09-25 09:45 3.19 720 3170 (1945) 279 (1956) 698 319 386 450 467 571 768 828 1010 1480
2022-09-25 08:45 3.19 720 3170 (1945) 279 (1956) 698 319 386 450 467 571 768 828 1010 1480
2022-09-25 07:45 3.20 727 3170 (1945) 279 (1956) 698 319 386 450 467 571 768 828 1010 1480
2022-09-25 06:45 3.19 720 3170 (1945) 279 (1956) 698 319 386 450 467 571 768 828 1010 1480
2022-09-25 05:45 3.19 720 3170 (1945) 279 (1956) 698 319 386 450 467 571 768 828 1010 1480
2022-09-25 04:45 3.19 720 3170 (1945) 279 (1956) 698 319 386 450 467 571 768 828 1010 1480
2022-09-25 03:45 3.18 712 3170 (1945) 279 (1956) 698 319 386 450 467 571 768 828 1010 1480
2022-09-25 02:45 3.18 712 3170 (1945) 279 (1956) 698 319 386 450 467 571 768 828 1010 1480
2022-09-25 01:45 3.19 720 3170 (1945) 279 (1956) 698 319 386 450 467 571 768 828 1010 1480
2022-09-25 00:45 3.19 720 3170 (1945) 279 (1956) 698 319 386 450 467 571 768 828 1010 1480
2022-09-24 23:45 3.20 727 2870 (2006) 283 (1956) 683 327 400 433 467 575 748 794 955 1510
2022-09-24 22:45 3.21 735 2870 (2006) 283 (1956) 683 327 400 433 467 575 748 794 955 1510
2022-09-24 21:45 3.19 720 2870 (2006) 283 (1956) 683 327 400 433 467 575 748 794 955 1510
2022-09-24 20:45 3.17 705 2870 (2006) 283 (1956) 683 327 400 433 467 575 748 794 955 1510
2022-09-24 19:45 3.17 705 2870 (2006) 283 (1956) 683 327 400 433 467 575 748 794 955 1510
2022-09-24 18:45 3.17 705 2870 (2006) 283 (1956) 683 327 400 433 467 575 748 794 955 1510
2022-09-24 17:45 3.17 705 2870 (2006) 283 (1956) 683 327 400 433 467 575 748 794 955 1510
2022-09-24 16:45 3.17 705 2870 (2006) 283 (1956) 683 327 400 433 467 575 748 794 955 1510
2022-09-24 15:45 3.18 712 2870 (2006) 283 (1956) 683 327 400 433 467 575 748 794 955 1510
2022-09-24 14:45 3.17 705 2870 (2006) 283 (1956) 683 327 400 433 467 575 748 794 955 1510
2022-09-24 13:45 3.17 705 2870 (2006) 283 (1956) 683 327 400 433 467 575 748 794 955 1510
2022-09-24 12:45 3.17 705 2870 (2006) 283 (1956) 683 327 400 433 467 575 748 794 955 1510
2022-09-24 11:45 3.16 697 2870 (2006) 283 (1956) 683 327 400 433 467 575 748 794 955 1510
2022-09-24 10:45 3.17 705 2870 (2006) 283 (1956) 683 327 400 433 467 575 748 794 955 1510
2022-09-24 09:45 3.17 705 2870 (2006) 283 (1956) 683 327 400 433 467 575 748 794 955 1510
2022-09-24 08:45 3.16 697 2870 (2006) 283 (1956) 683 327 400 433 467 575 748 794 955 1510
2022-09-24 07:45 3.17 705 2870 (2006) 283 (1956) 683 327 400 433 467 575 748 794 955 1510
2022-09-24 06:45 3.17 705 2870 (2006) 283 (1956) 683 327 400 433 467 575 748 794 955 1510
2022-09-24 05:45 3.17 705 2870 (2006) 283 (1956) 683 327 400 433 467 575 748 794 955 1510
2022-09-24 04:45 3.17 705 2870 (2006) 283 (1956) 683 327 400 433 467 575 748 794 955 1510
2022-09-24 03:45 3.18 712 2870 (2006) 283 (1956) 683 327 400 433 467 575 748 794 955 1510
2022-09-24 02:45 3.17 705 2870 (2006) 283 (1956) 683 327 400 433 467 575 748 794 955 1510
2022-09-24 01:45 3.17 705 2870 (2006) 283 (1956) 683 327 400 433 467 575 748 794 955 1510
2022-09-24 00:45 3.18 712 2870 (2006) 283 (1956) 683 327 400 433 467 575 748 794 955 1510
2022-09-23 23:45 3.17 705 23400 (2006) 277 (1941) 895 309 353 434 454 568 765 807 895 1210
2022-09-23 22:45 3.17 705 23400 (2006) 277 (1941) 895 309 353 434 454 568 765 807 895 1210
2022-09-23 21:45 3.17 705 23400 (2006) 277 (1941) 895 309 353 434 454 568 765 807 895 1210
2022-09-23 20:45 3.17 705 23400 (2006) 277 (1941) 895 309 353 434 454 568 765 807 895 1210
2022-09-23 19:45 3.18 712 23400 (2006) 277 (1941) 895 309 353 434 454 568 765 807 895 1210
2022-09-23 18:45 3.18 712 23400 (2006) 277 (1941) 895 309 353 434 454 568 765 807 895 1210
2022-09-23 17:45 3.18 712 23400 (2006) 277 (1941) 895 309 353 434 454 568 765 807 895 1210
2022-09-23 16:45 3.18 712 23400 (2006) 277 (1941) 895 309 353 434 454 568 765 807 895 1210
2022-09-23 15:45 3.17 705 23400 (2006) 277 (1941) 895 309 353 434 454 568 765 807 895 1210
2022-09-23 14:45 3.16 697 23400 (2006) 277 (1941) 895 309 353 434 454 568 765 807 895 1210
2022-09-23 13:45 3.18 712 23400 (2006) 277 (1941) 895 309 353 434 454 568 765 807 895 1210
2022-09-23 12:45 3.15 690 23400 (2006) 277 (1941) 895 309 353 434 454 568 765 807 895 1210
2022-09-23 11:45 3.16 697 23400 (2006) 277 (1941) 895 309 353 434 454 568 765 807 895 1210
2022-09-23 10:45 3.19 720 23400 (2006) 277 (1941) 895 309 353 434 454 568 765 807 895 1210
2022-09-23 09:45 3.14 682 23400 (2006) 277 (1941) 895 309 353 434 454 568 765 807 895 1210
2022-09-23 08:45 3.18 712 23400 (2006) 277 (1941) 895 309 353 434 454 568 765 807 895 1210
2022-09-23 07:45 3.18 712 23400 (2006) 277 (1941) 895 309 353 434 454 568 765 807 895 1210
2022-09-23 06:45 3.18 712 23400 (2006) 277 (1941) 895 309 353 434 454 568 765 807 895 1210
2022-09-23 05:45 3.18 712 23400 (2006) 277 (1941) 895 309 353 434 454 568 765 807 895 1210
2022-09-23 04:45 3.18 712 23400 (2006) 277 (1941) 895 309 353 434 454 568 765 807 895 1210
2022-09-23 03:45 3.18 712 23400 (2006) 277 (1941) 895 309 353 434 454 568 765 807 895 1210
2022-09-23 02:45 3.18 712 23400 (2006) 277 (1941) 895 309 353 434 454 568 765 807 895 1210
2022-09-23 01:45 3.18 712 23400 (2006) 277 (1941) 895 309 353 434 454 568 765 807 895 1210
2022-09-23 00:45 3.18 712 23400 (2006) 277 (1941) 895 309 353 434 454 568 765 807 895 1210
2022-09-22 23:45 3.18 712 2270 (1965) 279 (1956) 626 305 350 429 449 537 755 801 889 996
2022-09-22 22:45 3.19 720 2270 (1965) 279 (1956) 626 305 350 429 449 537 755 801 889 996
2022-09-22 21:45 3.18 712 2270 (1965) 279 (1956) 626 305 350 429 449 537 755 801 889 996
2022-09-22 20:45 3.18 712 2270 (1965) 279 (1956) 626 305 350 429 449 537 755 801 889 996
2022-09-22 19:45 3.18 712 2270 (1965) 279 (1956) 626 305 350 429 449 537 755 801 889 996
2022-09-22 18:45 3.18 712 2270 (1965) 279 (1956) 626 305 350 429 449 537 755 801 889 996
2022-09-22 17:45 3.17 705 2270 (1965) 279 (1956) 626 305 350 429 449 537 755 801 889 996
2022-09-22 16:45 3.18 712 2270 (1965) 279 (1956) 626 305 350 429 449 537 755 801 889 996
2022-09-22 15:45 3.18 712 2270 (1965) 279 (1956) 626 305 350 429 449 537 755 801 889 996
2022-09-22 14:45 3.18 712 2270 (1965) 279 (1956) 626 305 350 429 449 537 755 801 889 996
2022-09-22 13:45 3.18 712 2270 (1965) 279 (1956) 626 305 350 429 449 537 755 801 889 996
2022-09-22 12:45 3.19 720 2270 (1965) 279 (1956) 626 305 350 429 449 537 755 801 889 996
2022-09-22 11:45 3.19 720 2270 (1965) 279 (1956) 626 305 350 429 449 537 755 801 889 996
2022-09-22 10:45 3.19 720 2270 (1965) 279 (1956) 626 305 350 429 449 537 755 801 889 996
2022-09-22 09:45 3.19 720 2270 (1965) 279 (1956) 626 305 350 429 449 537 755 801 889 996
2022-09-22 08:45 3.18 712 2270 (1965) 279 (1956) 626 305 350 429 449 537 755 801 889 996
2022-09-22 07:45 3.19 720 2270 (1965) 279 (1956) 626 305 350 429 449 537 755 801 889 996
2022-09-22 06:45 3.19 720 2270 (1965) 279 (1956) 626 305 350 429 449 537 755 801 889 996
2022-09-22 05:45 3.19 720 2270 (1965) 279 (1956) 626 305 350 429 449 537 755 801 889 996
2022-09-22 04:45 3.19 720 2270 (1965) 279 (1956) 626 305 350 429 449 537 755 801 889 996
2022-09-22 03:45 3.19 720 2270 (1965) 279 (1956) 626 305 350 429 449 537 755 801 889 996
2022-09-22 02:45 3.19 720 2270 (1965) 279 (1956) 626 305 350 429 449 537 755 801 889 996
2022-09-22 01:45 3.19 720 2270 (1965) 279 (1956) 626 305 350 429 449 537 755 801 889 996
2022-09-22 00:45 3.19 720 2270 (1965) 279 (1956) 626 305 350 429 449 537 755 801 889 996
2022-09-21 23:45 3.18 712 2750 (1975) 279 (1956) 613 313 353 430 451 528 755 799 888 975
2022-09-21 22:45 3.19 720 2750 (1975) 279 (1956) 613 313 353 430 451 528 755 799 888 975
2022-09-21 21:45 3.19 720 2750 (1975) 279 (1956) 613 313 353 430 451 528 755 799 888 975
2022-09-21 20:45 3.19 720 2750 (1975) 279 (1956) 613 313 353 430 451 528 755 799 888 975
2022-09-21 19:45 3.19 720 2750 (1975) 279 (1956) 613 313 353 430 451 528 755 799 888 975
2022-09-21 18:45 3.19 720 2750 (1975) 279 (1956) 613 313 353 430 451 528 755 799 888 975
2022-09-21 17:45 3.19 720 2750 (1975) 279 (1956) 613 313 353 430 451 528 755 799 888 975
2022-09-21 16:45 3.19 720 2750 (1975) 279 (1956) 613 313 353 430 451 528 755 799 888 975
2022-09-21 15:45 3.20 727 2750 (1975) 279 (1956) 613 313 353 430 451 528 755 799 888 975
2022-09-21 14:45 3.19 720 2750 (1975) 279 (1956) 613 313 353 430 451 528 755 799 888 975
2022-09-21 13:45 3.19 720 2750 (1975) 279 (1956) 613 313 353 430 451 528 755 799 888 975
2022-09-21 12:45 3.19 720 2750 (1975) 279 (1956) 613 313 353 430 451 528 755 799 888 975
2022-09-21 11:45 3.18 712 2750 (1975) 279 (1956) 613 313 353 430 451 528 755 799 888 975
2022-09-21 10:45 3.19 720 2750 (1975) 279 (1956) 613 313 353 430 451 528 755 799 888 975
2022-09-21 09:45 3.19 720 2750 (1975) 279 (1956) 613 313 353 430 451 528 755 799 888 975
2022-09-21 08:45 3.19 720 2750 (1975) 279 (1956) 613 313 353 430 451 528 755 799 888 975
2022-09-21 07:45 3.19 720 2750 (1975) 279 (1956) 613 313 353 430 451 528 755 799 888 975
2022-09-21 06:45 3.19 720 2750 (1975) 279 (1956) 613 313 353 430 451 528 755 799 888 975
2022-09-21 05:45 3.19 720 2750 (1975) 279 (1956) 613 313 353 430 451 528 755 799 888 975
2022-09-21 04:45 3.19 720 2750 (1975) 279 (1956) 613 313 353 430 451 528 755 799 888 975
2022-09-21 03:45 3.19 720 2750 (1975) 279 (1956) 613 313 353 430 451 528 755 799 888 975
2022-09-21 02:45 3.19 720 2750 (1975) 279 (1956) 613 313 353 430 451 528 755 799 888 975
2022-09-21 01:45 3.19 720 2750 (1975) 279 (1956) 613 313 353 430 451 528 755 799 888 975
2022-09-21 00:45 3.19 720 2750 (1975) 279 (1956) 613 313 353 430 451 528 755 799 888 975
2022-09-20 23:45 3.20 727 3260 (1975) 287 (1941) 623 301 373 435 443 530 750 797 891 996
2022-09-20 22:45 3.19 720 3260 (1975) 287 (1941) 623 301 373 435 443 530 750 797 891 996
2022-09-20 21:45 3.19 720 3260 (1975) 287 (1941) 623 301 373 435 443 530 750 797 891 996
2022-09-20 20:45 3.19 720 3260 (1975) 287 (1941) 623 301 373 435 443 530 750 797 891 996
2022-09-20 19:45 3.20 727 3260 (1975) 287 (1941) 623 301 373 435 443 530 750 797 891 996
2022-09-20 18:45 3.20 727 3260 (1975) 287 (1941) 623 301 373 435 443 530 750 797 891 996
2022-09-20 17:45 3.20 727 3260 (1975) 287 (1941) 623 301 373 435 443 530 750 797 891 996
2022-09-20 16:45 3.20 727 3260 (1975) 287 (1941) 623 301 373 435 443 530 750 797 891 996
2022-09-20 15:45 3.20 727 3260 (1975) 287 (1941) 623 301 373 435 443 530 750 797 891 996
2022-09-20 14:45 3.20 727 3260 (1975) 287 (1941) 623 301 373 435 443 530 750 797 891 996
2022-09-20 13:45 3.20 727 3260 (1975) 287 (1941) 623 301 373 435 443 530 750 797 891 996
2022-09-20 12:45 3.20 727 3260 (1975) 287 (1941) 623 301 373 435 443 530 750 797 891 996
2022-09-20 11:45 3.19 720 3260 (1975) 287 (1941) 623 301 373 435 443 530 750 797 891 996
2022-09-20 10:45 3.19 720 3260 (1975) 287 (1941) 623 301 373 435 443 530 750 797 891 996
2022-09-20 09:45 3.20 727 3260 (1975) 287 (1941) 623 301 373 435 443 530 750 797 891 996
2022-09-20 08:45 3.20 727 3260 (1975) 287 (1941) 623 301 373 435 443 530 750 797 891 996
2022-09-20 07:45 3.20 727 3260 (1975) 287 (1941) 623 301 373 435 443 530 750 797 891 996
2022-09-20 06:45 3.20 727 3260 (1975) 287 (1941) 623 301 373 435 443 530 750 797 891 996
2022-09-20 05:45 3.21 735 3260 (1975) 287 (1941) 623 301 373 435 443 530 750 797 891 996
2022-09-20 04:45 3.21 735 3260 (1975) 287 (1941) 623 301 373 435 443 530 750 797 891 996
2022-09-20 03:45 3.20 727 3260 (1975) 287 (1941) 623 301 373 435 443 530 750 797 891 996
2022-09-20 02:45 3.21 735 3260 (1975) 287 (1941) 623 301 373 435 443 530 750 797 891 996
2022-09-20 01:45 3.20 727 3260 (1975) 287 (1941) 623 301 373 435 443 530 750 797 891 996
2022-09-20 00:45 3.20 727 3260 (1975) 287 (1941) 623 301 373 435 443 530 750 797 891 996
2022-09-19 23:45 3.20 727 2050 (1975) 283 (1956) 617 304 373 438 453 536 745 802 929 1000
2022-09-19 22:45 3.21 735 2050 (1975) 283 (1956) 617 304 373 438 453 536 745 802 929 1000
2022-09-19 21:45 3.20 727 2050 (1975) 283 (1956) 617 304 373 438 453 536 745 802 929 1000
2022-09-19 20:45 3.20 727 2050 (1975) 283 (1956) 617 304 373 438 453 536 745 802 929 1000
2022-09-19 19:45 3.20 727 2050 (1975) 283 (1956) 617 304 373 438 453 536 745 802 929 1000
2022-09-19 18:45 3.21 735 2050 (1975) 283 (1956) 617 304 373 438 453 536 745 802 929 1000
2022-09-19 17:45 3.21 735 2050 (1975) 283 (1956) 617 304 373 438 453 536 745 802 929 1000
2022-09-19 16:45 3.21 735 2050 (1975) 283 (1956) 617 304 373 438 453 536 745 802 929 1000
2022-09-19 15:45 3.21 735 2050 (1975) 283 (1956) 617 304 373 438 453 536 745 802 929 1000
2022-09-19 14:45 3.21 735 2050 (1975) 283 (1956) 617 304 373 438 453 536 745 802 929 1000
2022-09-19 13:45 3.21 735 2050 (1975) 283 (1956) 617 304 373 438 453 536 745 802 929 1000
2022-09-19 12:45 3.20 727 2050 (1975) 283 (1956) 617 304 373 438 453 536 745 802 929 1000
2022-09-19 11:45 3.20 727 2050 (1975) 283 (1956) 617 304 373 438 453 536 745 802 929 1000
2022-09-19 10:45 3.20 727 2050 (1975) 283 (1956) 617 304 373 438 453 536 745 802 929 1000
2022-09-19 09:45 3.20 727 2050 (1975) 283 (1956) 617 304 373 438 453 536 745 802 929 1000
2022-09-19 08:45 3.21 735 2050 (1975) 283 (1956) 617 304 373 438 453 536 745 802 929 1000
2022-09-19 07:45 3.21 735 2050 (1975) 283 (1956) 617 304 373 438 453 536 745 802 929 1000
2022-09-19 06:45 3.21 735 2050 (1975) 283 (1956) 617 304 373 438 453 536 745 802 929 1000
2022-09-19 05:45 3.21 735 2050 (1975) 283 (1956) 617 304 373 438 453 536 745 802 929 1000
2022-09-19 04:45 3.21 735 2050 (1975) 283 (1956) 617 304 373 438 453 536 745 802 929 1000
2022-09-19 03:45 3.21 735 2050 (1975) 283 (1956) 617 304 373 438 453 536 745 802 929 1000
2022-09-19 02:45 3.21 735 2050 (1975) 283 (1956) 617 304 373 438 453 536 745 802 929 1000
2022-09-19 01:45 3.21 735 2050 (1975) 283 (1956) 617 304 373 438 453 536 745 802 929 1000
2022-09-19 00:45 3.21 735 2050 (1975) 283 (1956) 617 304 373 438 453 536 745 802 929 1000
2022-09-18 23:45 3.21 735 2510 (1975) 279 (1956) 627 304 373 440 453 544 750 797 918 952
2022-09-18 22:45 3.21 735 2510 (1975) 279 (1956) 627 304 373 440 453 544 750 797 918 952
2022-09-18 21:45 3.21 735 2510 (1975) 279 (1956) 627 304 373 440 453 544 750 797 918 952
2022-09-18 20:45 3.21 735 2510 (1975) 279 (1956) 627 304 373 440 453 544 750 797 918 952
2022-09-18 19:45 3.21 735 2510 (1975) 279 (1956) 627 304 373 440 453 544 750 797 918 952
2022-09-18 18:45 3.21 735 2510 (1975) 279 (1956) 627 304 373 440 453 544 750 797 918 952
2022-09-18 17:45 3.22 742 2510 (1975) 279 (1956) 627 304 373 440 453 544 750 797 918 952
2022-09-18 16:45 3.22 742 2510 (1975) 279 (1956) 627 304 373 440 453 544 750 797 918 952
2022-09-18 15:45 3.22 742 2510 (1975) 279 (1956) 627 304 373 440 453 544 750 797 918 952
2022-09-18 14:45 3.21 735 2510 (1975) 279 (1956) 627 304 373 440 453 544 750 797 918 952
2022-09-18 13:45 3.22 742 2510 (1975) 279 (1956) 627 304 373 440 453 544 750 797 918 952
2022-09-18 12:45 3.22 742 2510 (1975) 279 (1956) 627 304 373 440 453 544 750 797 918 952
2022-09-18 11:45 3.21 735 2510 (1975) 279 (1956) 627 304 373 440 453 544 750 797 918 952
2022-09-18 10:45 3.21 735 2510 (1975) 279 (1956) 627 304 373 440 453 544 750 797 918 952
2022-09-18 09:45 3.21 735 2510 (1975) 279 (1956) 627 304 373 440 453 544 750 797 918 952
2022-09-18 08:45 3.22 742 2510 (1975) 279 (1956) 627 304 373 440 453 544 750 797 918 952
2022-09-18 07:45 3.21 735 2510 (1975) 279 (1956) 627 304 373 440 453 544 750 797 918 952
2022-09-18 06:45 3.21 735 2510 (1975) 279 (1956) 627 304 373 440 453 544 750 797 918 952
2022-09-18 05:45 3.21 735 2510 (1975) 279 (1956) 627 304 373 440 453 544 750 797 918 952
2022-09-18 04:45 3.22 742 2510 (1975) 279 (1956) 627 304 373 440 453 544 750 797 918 952
2022-09-18 03:45 3.21 735 2510 (1975) 279 (1956) 627 304 373 440 453 544 750 797 918 952
2022-09-18 02:45 3.22 742 2510 (1975) 279 (1956) 627 304 373 440 453 544 750 797 918 952
2022-09-18 01:45 3.22 742 2510 (1975) 279 (1956) 627 304 373 440 453 544 750 797 918 952
2022-09-18 00:45 3.22 742 2510 (1975) 279 (1956) 627 304 373 440 453 544 750 797 918 952

A total of 178 rows are displayed for years 1930 through 2021.